sensor_id;sensor_type;location;lat;lon;timestamp;temperature;humidity
24426;DHT22;12611;44.446;26.000;2024-03-25T00:01:50;13.80;87.00
24426;DHT22;12611;44.446;26.000;2024-03-25T00:04:19;13.80;87.00
24426;DHT22;12611;44.446;26.000;2024-03-25T00:06:48;13.70;87.80
24426;DHT22;12611;44.446;26.000;2024-03-25T00:09:15;13.70;87.30
24426;DHT22;12611;44.446;26.000;2024-03-25T00:11:43;13.60;87.60
24426;DHT22;12611;44.446;26.000;2024-03-25T00:14:10;13.60;87.50
24426;DHT22;12611;44.446;26.000;2024-03-25T00:16:38;13.60;87.50
24426;DHT22;12611;44.446;26.000;2024-03-25T00:19:04;13.50;87.40
24426;DHT22;12611;44.446;26.000;2024-03-25T00:21:33;13.50;88.10
24426;DHT22;12611;44.446;26.000;2024-03-25T00:24:00;13.40;88.10
24426;DHT22;12611;44.446;26.000;2024-03-25T00:26:28;13.40;88.30
24426;DHT22;12611;44.446;26.000;2024-03-25T00:28:54;13.40;87.90
24426;DHT22;12611;44.446;26.000;2024-03-25T00:31:22;13.30;87.50
24426;DHT22;12611;44.446;26.000;2024-03-25T00:33:49;13.30;88.00
24426;DHT22;12611;44.446;26.000;2024-03-25T00:36:17;13.30;87.80
24426;DHT22;12611;44.446;26.000;2024-03-25T00:38:45;13.30;87.60
24426;DHT22;12611;44.446;26.000;2024-03-25T00:41:13;13.30;87.60
24426;DHT22;12611;44.446;26.000;2024-03-25T00:43:40;13.30;87.70
24426;DHT22;12611;44.446;26.000;2024-03-25T00:49:02;13.30;87.30
24426;DHT22;12611;44.446;26.000;2024-03-25T00:51:29;13.20;87.90
24426;DHT22;12611;44.446;26.000;2024-03-25T00:53:58;13.10;87.50
24426;DHT22;12611;44.446;26.000;2024-03-25T00:56:25;13.00;88.10
24426;DHT22;12611;44.446;26.000;2024-03-25T00:58:52;12.90;87.60
24426;DHT22;12611;44.446;26.000;2024-03-25T01:01:19;12.80;87.80
24426;DHT22;12611;44.446;26.000;2024-03-25T01:03:46;12.70;87.80
24426;DHT22;12611;44.446;26.000;2024-03-25T01:06:14;12.70;88.30
24426;DHT22;12611;44.446;26.000;2024-03-25T01:08:41;12.70;87.00
24426;DHT22;12611;44.446;26.000;2024-03-25T01:11:10;12.60;86.90
24426;DHT22;12611;44.446;26.000;2024-03-25T01:13:37;12.60;86.90
24426;DHT22;12611;44.446;26.000;2024-03-25T01:16:05;12.60;86.90
24426;DHT22;12611;44.446;26.000;2024-03-25T01:18:32;12.50;86.90
24426;DHT22;12611;44.446;26.000;2024-03-25T01:20:59;12.50;86.70
24426;DHT22;12611;44.446;26.000;2024-03-25T01:23:26;12.50;86.70
24426;DHT22;12611;44.446;26.000;2024-03-25T01:25:54;12.50;86.50
24426;DHT22;12611;44.446;26.000;2024-03-25T01:28:22;12.40;86.10
24426;DHT22;12611;44.446;26.000;2024-03-25T01:30:50;12.50;86.10
24426;DHT22;12611;44.446;26.000;2024-03-25T01:33:17;12.40;86.10
24426;DHT22;12611;44.446;26.000;2024-03-25T01:35:44;12.40;86.00
24426;DHT22;12611;44.446;26.000;2024-03-25T01:38:11;12.30;86.20
24426;DHT22;12611;44.446;26.000;2024-03-25T01:40:39;12.30;86.60
24426;DHT22;12611;44.446;26.000;2024-03-25T01:43:06;12.20;86.30
24426;DHT22;12611;44.446;26.000;2024-03-25T01:45:35;12.20;86.10
24426;DHT22;12611;44.446;26.000;2024-03-25T01:48:04;12.10;86.20
24426;DHT22;12611;44.446;26.000;2024-03-25T01:50:35;12.10;86.10
24426;DHT22;12611;44.446;26.000;2024-03-25T01:53:02;12.00;86.20
24426;DHT22;12611;44.446;26.000;2024-03-25T01:55:32;12.00;86.00
24426;DHT22;12611;44.446;26.000;2024-03-25T01:58:00;11.90;86.30
24426;DHT22;12611;44.446;26.000;2024-03-25T02:00:28;11.90;86.40
24426;DHT22;12611;44.446;26.000;2024-03-25T02:02:58;11.80;87.00
24426;DHT22;12611;44.446;26.000;2024-03-25T02:05:25;11.80;86.60
24426;DHT22;12611;44.446;26.000;2024-03-25T02:07:53;11.80;86.70
24426;DHT22;12611;44.446;26.000;2024-03-25T02:10:21;11.80;86.50
24426;DHT22;12611;44.446;26.000;2024-03-25T02:12:49;11.80;86.40
24426;DHT22;12611;44.446;26.000;2024-03-25T02:15:17;11.80;86.60
24426;DHT22;12611;44.446;26.000;2024-03-25T02:17:45;11.70;86.70
24426;DHT22;12611;44.446;26.000;2024-03-25T02:20:14;11.70;86.70
24426;DHT22;12611;44.446;26.000;2024-03-25T02:22:42;11.70;86.40
24426;DHT22;12611;44.446;26.000;2024-03-25T02:25:09;11.70;86.30
24426;DHT22;12611;44.446;26.000;2024-03-25T02:27:39;11.70;86.30
24426;DHT22;12611;44.446;26.000;2024-03-25T02:30:07;11.80;86.10
24426;DHT22;12611;44.446;26.000;2024-03-25T02:32:35;11.70;86.10
24426;DHT22;12611;44.446;26.000;2024-03-25T02:35:03;11.70;86.10
24426;DHT22;12611;44.446;26.000;2024-03-25T02:37:33;11.70;86.10
24426;DHT22;12611;44.446;26.000;2024-03-25T02:40:01;11.70;86.00
24426;DHT22;12611;44.446;26.000;2024-03-25T02:42:32;11.70;85.70
24426;DHT22;12611;44.446;26.000;2024-03-25T02:45:00;11.70;85.80
24426;DHT22;12611;44.446;26.000;2024-03-25T02:47:28;11.60;85.70
24426;DHT22;12611;44.446;26.000;2024-03-25T02:49:54;11.70;85.70
24426;DHT22;12611;44.446;26.000;2024-03-25T02:52:22;11.70;85.90
24426;DHT22;12611;44.446;26.000;2024-03-25T02:54:49;11.70;86.10
24426;DHT22;12611;44.446;26.000;2024-03-25T02:57:17;11.60;85.80
24426;DHT22;12611;44.446;26.000;2024-03-25T02:59:44;11.60;85.70
24426;DHT22;12611;44.446;26.000;2024-03-25T03:02:13;11.60;85.60
24426;DHT22;12611;44.446;26.000;2024-03-25T03:04:39;11.60;86.30
24426;DHT22;12611;44.446;26.000;2024-03-25T03:07:07;11.60;86.00
24426;DHT22;12611;44.446;26.000;2024-03-25T03:09:35;11.60;85.90
24426;DHT22;12611;44.446;26.000;2024-03-25T03:12:03;11.60;85.70
24426;DHT22;12611;44.446;26.000;2024-03-25T03:14:29;11.60;85.60
24426;DHT22;12611;44.446;26.000;2024-03-25T03:16:57;11.60;85.50
24426;DHT22;12611;44.446;26.000;2024-03-25T03:19:26;11.60;85.70
24426;DHT22;12611;44.446;26.000;2024-03-25T03:21:54;11.60;85.60
24426;DHT22;12611;44.446;26.000;2024-03-25T03:24:20;11.60;85.70
24426;DHT22;12611;44.446;26.000;2024-03-25T03:26:49;11.60;85.70
24426;DHT22;12611;44.446;26.000;2024-03-25T03:29:15;11.60;85.90
24426;DHT22;12611;44.446;26.000;2024-03-25T03:31:44;11.60;85.80
24426;DHT22;12611;44.446;26.000;2024-03-25T03:34:11;11.50;86.10
24426;DHT22;12611;44.446;26.000;2024-03-25T03:36:40;11.50;86.10
24426;DHT22;12611;44.446;26.000;2024-03-25T03:39:06;11.50;86.30
24426;DHT22;12611;44.446;26.000;2024-03-25T03:41:35;11.40;85.90
24426;DHT22;12611;44.446;26.000;2024-03-25T03:44:02;11.40;85.60
24426;DHT22;12611;44.446;26.000;2024-03-25T03:46:30;11.40;85.90
24426;DHT22;12611;44.446;26.000;2024-03-25T03:48:57;11.30;85.90
24426;DHT22;12611;44.446;26.000;2024-03-25T03:51:25;11.30;86.00
24426;DHT22;12611;44.446;26.000;2024-03-25T03:53:53;11.30;85.60
24426;DHT22;12611;44.446;26.000;2024-03-25T03:56:21;11.30;85.50
24426;DHT22;12611;44.446;26.000;2024-03-25T03:58:47;11.30;85.50
24426;DHT22;12611;44.446;26.000;2024-03-25T04:01:15;11.30;85.20
24426;DHT22;12611;44.446;26.000;2024-03-25T04:03:42;11.30;85.20
24426;DHT22;12611;44.446;26.000;2024-03-25T04:06:11;11.30;85.10
24426;DHT22;12611;44.446;26.000;2024-03-25T04:08:38;11.30;85.00
24426;DHT22;12611;44.446;26.000;2024-03-25T04:11:07;11.30;84.90
24426;DHT22;12611;44.446;26.000;2024-03-25T04:13:34;11.30;84.80
24426;DHT22;12611;44.446;26.000;2024-03-25T04:16:03;11.30;84.60
24426;DHT22;12611;44.446;26.000;2024-03-25T04:18:30;11.30;84.40
24426;DHT22;12611;44.446;26.000;2024-03-25T04:20:58;11.30;84.70
24426;DHT22;12611;44.446;26.000;2024-03-25T04:23:25;11.30;84.60
24426;DHT22;12611;44.446;26.000;2024-03-25T04:25:54;11.30;84.40
24426;DHT22;12611;44.446;26.000;2024-03-25T04:28:22;11.30;84.60
24426;DHT22;12611;44.446;26.000;2024-03-25T04:30:53;11.30;84.50
24426;DHT22;12611;44.446;26.000;2024-03-25T04:33:21;11.20;84.60
24426;DHT22;12611;44.446;26.000;2024-03-25T04:35:49;11.30;84.60
24426;DHT22;12611;44.446;26.000;2024-03-25T04:38:16;11.20;84.60
24426;DHT22;12611;44.446;26.000;2024-03-25T04:40:43;11.30;84.50
24426;DHT22;12611;44.446;26.000;2024-03-25T04:43:10;11.30;84.40
24426;DHT22;12611;44.446;26.000;2024-03-25T04:45:38;11.20;84.70
24426;DHT22;12611;44.446;26.000;2024-03-25T04:48:06;11.20;84.40
24426;DHT22;12611;44.446;26.000;2024-03-25T04:50:33;11.20;85.00
24426;DHT22;12611;44.446;26.000;2024-03-25T04:53:00;11.20;84.40
24426;DHT22;12611;44.446;26.000;2024-03-25T04:55:26;11.00;83.10
24426;DHT22;12611;44.446;26.000;2024-03-25T04:57:53;11.00;83.30
24426;DHT22;12611;44.446;26.000;2024-03-25T05:00:20;10.90;83.20
24426;DHT22;12611;44.446;26.000;2024-03-25T05:02:48;11.00;83.30
24426;DHT22;12611;44.446;26.000;2024-03-25T05:05:15;10.90;83.80
24426;DHT22;12611;44.446;26.000;2024-03-25T05:07:43;10.90;84.90
24426;DHT22;12611;44.446;26.000;2024-03-25T05:10:10;10.90;85.20
24426;DHT22;12611;44.446;26.000;2024-03-25T05:12:37;10.90;84.30
24426;DHT22;12611;44.446;26.000;2024-03-25T05:15:05;11.00;84.30
24426;DHT22;12611;44.446;26.000;2024-03-25T05:17:32;11.00;84.20
24426;DHT22;12611;44.446;26.000;2024-03-25T05:20:00;10.90;84.10
24426;DHT22;12611;44.446;26.000;2024-03-25T05:22:26;11.00;84.10
24426;DHT22;12611;44.446;26.000;2024-03-25T05:24:53;11.00;84.00
24426;DHT22;12611;44.446;26.000;2024-03-25T05:27:20;11.00;83.90
24426;DHT22;12611;44.446;26.000;2024-03-25T05:29:46;11.00;83.80
24426;DHT22;12611;44.446;26.000;2024-03-25T05:32:13;11.00;83.80
24426;DHT22;12611;44.446;26.000;2024-03-25T05:34:39;11.00;83.70
24426;DHT22;12611;44.446;26.000;2024-03-25T05:37:07;11.10;83.70
24426;DHT22;12611;44.446;26.000;2024-03-25T05:39:34;11.10;83.70
24426;DHT22;12611;44.446;26.000;2024-03-25T05:42:01;11.10;83.60
24426;DHT22;12611;44.446;26.000;2024-03-25T05:44:27;11.10;83.70
24426;DHT22;12611;44.446;26.000;2024-03-25T05:46:54;11.10;83.70
24426;DHT22;12611;44.446;26.000;2024-03-25T05:49:20;11.10;83.40
24426;DHT22;12611;44.446;26.000;2024-03-25T05:51:47;11.20;83.10
24426;DHT22;12611;44.446;26.000;2024-03-25T05:54:15;11.20;83.00
24426;DHT22;12611;44.446;26.000;2024-03-25T05:56:42;11.20;82.90
24426;DHT22;12611;44.446;26.000;2024-03-25T05:59:08;11.20;82.90
24426;DHT22;12611;44.446;26.000;2024-03-25T06:01:35;11.20;82.90
24426;DHT22;12611;44.446;26.000;2024-03-25T06:04:02;11.20;83.00
24426;DHT22;12611;44.446;26.000;2024-03-25T06:06:28;11.20;82.90
24426;DHT22;12611;44.446;26.000;2024-03-25T06:08:55;11.20;82.80
24426;DHT22;12611;44.446;26.000;2024-03-25T06:11:24;11.20;82.90
24426;DHT22;12611;44.446;26.000;2024-03-25T06:13:50;11.20;82.80
24426;DHT22;12611;44.446;26.000;2024-03-25T06:16:17;11.30;82.80
24426;DHT22;12611;44.446;26.000;2024-03-25T06:18:43;11.30;83.00
24426;DHT22;12611;44.446;26.000;2024-03-25T06:21:10;11.20;82.90
24426;DHT22;12611;44.446;26.000;2024-03-25T06:23:37;11.20;82.80
24426;DHT22;12611;44.446;26.000;2024-03-25T06:26:03;11.20;83.00
24426;DHT22;12611;44.446;26.000;2024-03-25T06:28:32;11.20;83.10
24426;DHT22;12611;44.446;26.000;2024-03-25T06:30:58;11.20;83.30
24426;DHT22;12611;44.446;26.000;2024-03-25T06:33:43;11.20;83.30
24426;DHT22;12611;44.446;26.000;2024-03-25T06:36:28;11.10;83.70
24426;DHT22;12611;44.446;26.000;2024-03-25T06:38:55;11.10;83.60
24426;DHT22;12611;44.446;26.000;2024-03-25T06:41:21;11.10;83.60
24426;DHT22;12611;44.446;26.000;2024-03-25T06:43:49;11.10;83.70
24426;DHT22;12611;44.446;26.000;2024-03-25T06:46:16;11.20;83.80
24426;DHT22;12611;44.446;26.000;2024-03-25T06:48:43;11.20;83.60
24426;DHT22;12611;44.446;26.000;2024-03-25T06:51:09;11.20;83.70
24426;DHT22;12611;44.446;26.000;2024-03-25T06:53:36;11.20;83.70
24426;DHT22;12611;44.446;26.000;2024-03-25T06:56:03;11.20;84.40
24426;DHT22;12611;44.446;26.000;2024-03-25T06:58:30;11.30;83.70
24426;DHT22;12611;44.446;26.000;2024-03-25T07:01:04;11.30;83.70
24426;DHT22;12611;44.446;26.000;2024-03-25T07:03:31;11.30;83.70
24426;DHT22;12611;44.446;26.000;2024-03-25T07:05:57;11.30;83.70
24426;DHT22;12611;44.446;26.000;2024-03-25T07:08:24;11.30;83.60
24426;DHT22;12611;44.446;26.000;2024-03-25T07:10:51;11.40;83.70
24426;DHT22;12611;44.446;26.000;2024-03-25T07:13:17;11.40;83.70
24426;DHT22;12611;44.446;26.000;2024-03-25T07:15:44;11.40;83.80
24426;DHT22;12611;44.446;26.000;2024-03-25T07:18:13;11.40;83.90
24426;DHT22;12611;44.446;26.000;2024-03-25T07:20:39;11.50;83.80
24426;DHT22;12611;44.446;26.000;2024-03-25T07:23:07;11.60;83.60
24426;DHT22;12611;44.446;26.000;2024-03-25T07:25:34;11.60;83.30
24426;DHT22;12611;44.446;26.000;2024-03-25T07:28:00;11.70;83.30
24426;DHT22;12611;44.446;26.000;2024-03-25T07:30:27;11.80;83.10
24426;DHT22;12611;44.446;26.000;2024-03-25T07:32:54;11.80;82.90
24426;DHT22;12611;44.446;26.000;2024-03-25T07:35:22;11.90;82.90
24426;DHT22;12611;44.446;26.000;2024-03-25T07:37:49;12.00;82.70
24426;DHT22;12611;44.446;26.000;2024-03-25T07:40:16;12.00;82.60
24426;DHT22;12611;44.446;26.000;2024-03-25T07:42:42;12.10;82.20
24426;DHT22;12611;44.446;26.000;2024-03-25T07:45:09;12.10;82.70
24426;DHT22;12611;44.446;26.000;2024-03-25T07:47:36;12.10;81.60
24426;DHT22;12611;44.446;26.000;2024-03-25T07:50:04;12.20;81.60
24426;DHT22;12611;44.446;26.000;2024-03-25T07:52:40;12.20;81.40
24426;DHT22;12611;44.446;26.000;2024-03-25T07:55:07;12.20;81.40
24426;DHT22;12611;44.446;26.000;2024-03-25T07:57:34;12.20;81.40
24426;DHT22;12611;44.446;26.000;2024-03-25T08:00:01;12.20;81.30
24426;DHT22;12611;44.446;26.000;2024-03-25T08:02:28;12.20;81.10
24426;DHT22;12611;44.446;26.000;2024-03-25T08:04:55;12.10;80.90
24426;DHT22;12611;44.446;26.000;2024-03-25T08:07:21;12.10;81.00
24426;DHT22;12611;44.446;26.000;2024-03-25T08:09:50;12.10;81.20
24426;DHT22;12611;44.446;26.000;2024-03-25T08:12:16;12.00;81.20
24426;DHT22;12611;44.446;26.000;2024-03-25T08:14:43;12.10;81.30
24426;DHT22;12611;44.446;26.000;2024-03-25T08:17:10;12.10;81.20
24426;DHT22;12611;44.446;26.000;2024-03-25T08:19:36;12.00;81.40
24426;DHT22;12611;44.446;26.000;2024-03-25T08:22:03;12.10;81.60
24426;DHT22;12611;44.446;26.000;2024-03-25T08:24:30;12.00;81.40
24426;DHT22;12611;44.446;26.000;2024-03-25T08:26:58;12.10;82.20
24426;DHT22;12611;44.446;26.000;2024-03-25T08:29:25;12.10;82.70
24426;DHT22;12611;44.446;26.000;2024-03-25T08:31:51;12.10;82.70
24426;DHT22;12611;44.446;26.000;2024-03-25T08:34:18;12.10;82.50
24426;DHT22;12611;44.446;26.000;2024-03-25T08:36:45;12.20;82.80
24426;DHT22;12611;44.446;26.000;2024-03-25T08:39:11;12.20;82.90
24426;DHT22;12611;44.446;26.000;2024-03-25T08:41:38;12.10;82.20
24426;DHT22;12611;44.446;26.000;2024-03-25T08:44:06;12.10;82.30
24426;DHT22;12611;44.446;26.000;2024-03-25T08:46:33;12.10;81.90
24426;DHT22;12611;44.446;26.000;2024-03-25T08:48:59;12.00;82.00
24426;DHT22;12611;44.446;26.000;2024-03-25T08:51:26;12.00;82.80
24426;DHT22;12611;44.446;26.000;2024-03-25T08:53:53;12.00;82.60
24426;DHT22;12611;44.446;26.000;2024-03-25T08:56:19;11.90;81.70
24426;DHT22;12611;44.446;26.000;2024-03-25T08:58:46;11.90;82.30
24426;DHT22;12611;44.446;26.000;2024-03-25T09:01:14;12.00;82.70
24426;DHT22;12611;44.446;26.000;2024-03-25T09:03:41;12.00;82.20
24426;DHT22;12611;44.446;26.000;2024-03-25T09:06:08;11.90;81.90
24426;DHT22;12611;44.446;26.000;2024-03-25T09:08:34;11.90;82.30
24426;DHT22;12611;44.446;26.000;2024-03-25T09:11:01;11.90;82.20
24426;DHT22;12611;44.446;26.000;2024-03-25T09:13:30;11.90;82.60
24426;DHT22;12611;44.446;26.000;2024-03-25T09:15:57;11.90;83.30
24426;DHT22;12611;44.446;26.000;2024-03-25T09:18:25;11.90;83.20
24426;DHT22;12611;44.446;26.000;2024-03-25T09:20:52;11.90;84.20
24426;DHT22;12611;44.446;26.000;2024-03-25T09:23:19;11.90;85.00
24426;DHT22;12611;44.446;26.000;2024-03-25T09:25:52;11.90;84.50
24426;DHT22;12611;44.446;26.000;2024-03-25T09:28:19;11.90;84.90
24426;DHT22;12611;44.446;26.000;2024-03-25T09:30:45;11.90;85.50
24426;DHT22;12611;44.446;26.000;2024-03-25T09:33:13;12.00;85.40
24426;DHT22;12611;44.446;26.000;2024-03-25T09:35:41;12.00;85.00
24426;DHT22;12611;44.446;26.000;2024-03-25T09:38:08;12.10;84.50
24426;DHT22;12611;44.446;26.000;2024-03-25T09:40:35;12.00;84.20
24426;DHT22;12611;44.446;26.000;2024-03-25T09:43:04;12.00;83.90
24426;DHT22;12611;44.446;26.000;2024-03-25T09:45:34;11.90;83.60
24426;DHT22;12611;44.446;26.000;2024-03-25T09:48:04;11.90;83.60
24426;DHT22;12611;44.446;26.000;2024-03-25T09:50:32;12.00;84.10
24426;DHT22;12611;44.446;26.000;2024-03-25T09:53:00;12.00;83.80
24426;DHT22;12611;44.446;26.000;2024-03-25T09:55:26;12.10;84.10
24426;DHT22;12611;44.446;26.000;2024-03-25T09:57:54;12.20;84.10
24426;DHT22;12611;44.446;26.000;2024-03-25T10:00:21;12.30;83.90
24426;DHT22;12611;44.446;26.000;2024-03-25T10:02:48;12.20;82.90
24426;DHT22;12611;44.446;26.000;2024-03-25T10:05:15;12.40;83.50
24426;DHT22;12611;44.446;26.000;2024-03-25T10:07:42;12.40;82.60
24426;DHT22;12611;44.446;26.000;2024-03-25T10:10:10;12.50;83.00
24426;DHT22;12611;44.446;26.000;2024-03-25T10:12:37;12.60;83.30
24426;DHT22;12611;44.446;26.000;2024-03-25T10:15:04;12.60;82.30
24426;DHT22;12611;44.446;26.000;2024-03-25T10:17:31;12.70;82.50
24426;DHT22;12611;44.446;26.000;2024-03-25T10:19:58;12.70;81.90
24426;DHT22;12611;44.446;26.000;2024-03-25T10:22:25;12.80;82.50
24426;DHT22;12611;44.446;26.000;2024-03-25T10:24:51;12.90;82.70
24426;DHT22;12611;44.446;26.000;2024-03-25T10:27:20;12.90;82.40
24426;DHT22;12611;44.446;26.000;2024-03-25T10:29:47;12.90;82.40
24426;DHT22;12611;44.446;26.000;2024-03-25T10:32:14;13.00;82.00
24426;DHT22;12611;44.446;26.000;2024-03-25T10:34:41;13.10;82.40
24426;DHT22;12611;44.446;26.000;2024-03-25T10:37:09;13.10;81.70
24426;DHT22;12611;44.446;26.000;2024-03-25T10:39:39;13.20;82.00
24426;DHT22;12611;44.446;26.000;2024-03-25T10:42:12;13.30;82.00
24426;DHT22;12611;44.446;26.000;2024-03-25T10:44:41;13.40;81.40
24426;DHT22;12611;44.446;26.000;2024-03-25T10:47:09;13.40;80.40
24426;DHT22;12611;44.446;26.000;2024-03-25T10:49:42;13.60;80.80
24426;DHT22;12611;44.446;26.000;2024-03-25T10:52:12;13.60;79.60
24426;DHT22;12611;44.446;26.000;2024-03-25T10:54:39;13.60;78.20
24426;DHT22;12611;44.446;26.000;2024-03-25T10:57:10;13.70;78.10
24426;DHT22;12611;44.446;26.000;2024-03-25T10:59:37;13.80;78.50
24426;DHT22;12611;44.446;26.000;2024-03-25T11:02:08;13.80;78.20
24426;DHT22;12611;44.446;26.000;2024-03-25T11:04:36;13.90;77.70
24426;DHT22;12611;44.446;26.000;2024-03-25T11:07:09;14.00;78.30
24426;DHT22;12611;44.446;26.000;2024-03-25T11:09:37;14.00;77.70
24426;DHT22;12611;44.446;26.000;2024-03-25T11:12:05;14.00;76.30
24426;DHT22;12611;44.446;26.000;2024-03-25T11:14:32;14.20;77.10
24426;DHT22;12611;44.446;26.000;2024-03-25T11:16:58;14.20;73.80
24426;DHT22;12611;44.446;26.000;2024-03-25T11:19:28;14.20;73.50
24426;DHT22;12611;44.446;26.000;2024-03-25T11:22:06;14.30;73.20
24426;DHT22;12611;44.446;26.000;2024-03-25T11:24:34;14.30;72.30
24426;DHT22;12611;44.446;26.000;2024-03-25T11:27:06;14.40;72.30
24426;DHT22;12611;44.446;26.000;2024-03-25T11:29:33;14.40;71.30
24426;DHT22;12611;44.446;26.000;2024-03-25T11:32:04;14.50;72.40
24426;DHT22;12611;44.446;26.000;2024-03-25T11:34:32;14.60;71.70
24426;DHT22;12611;44.446;26.000;2024-03-25T11:36:59;14.60;69.40
24426;DHT22;12611;44.446;26.000;2024-03-25T11:39:26;14.60;69.70
24426;DHT22;12611;44.446;26.000;2024-03-25T11:41:53;14.70;71.90
24426;DHT22;12611;44.446;26.000;2024-03-25T11:44:19;14.70;72.70
24426;DHT22;12611;44.446;26.000;2024-03-25T11:46:46;14.70;71.50
24426;DHT22;12611;44.446;26.000;2024-03-25T11:49:20;14.70;72.10
24426;DHT22;12611;44.446;26.000;2024-03-25T11:51:48;14.70;72.50
24426;DHT22;12611;44.446;26.000;2024-03-25T11:54:15;14.70;73.40
24426;DHT22;12611;44.446;26.000;2024-03-25T11:56:42;14.70;73.90
24426;DHT22;12611;44.446;26.000;2024-03-25T11:59:09;14.70;72.80
24426;DHT22;12611;44.446;26.000;2024-03-25T12:01:37;14.70;73.40
24426;DHT22;12611;44.446;26.000;2024-03-25T12:04:10;14.80;73.40
24426;DHT22;12611;44.446;26.000;2024-03-25T12:06:36;14.90;74.00
24426;DHT22;12611;44.446;26.000;2024-03-25T12:09:05;15.00;73.50
24426;DHT22;12611;44.446;26.000;2024-03-25T12:11:50;15.10;73.80
24426;DHT22;12611;44.446;26.000;2024-03-25T12:14:18;15.10;73.30
24426;DHT22;12611;44.446;26.000;2024-03-25T12:16:45;15.10;73.80
24426;DHT22;12611;44.446;26.000;2024-03-25T12:19:12;15.20;74.20
24426;DHT22;12611;44.446;26.000;2024-03-25T12:21:38;15.20;72.90
24426;DHT22;12611;44.446;26.000;2024-03-25T12:24:07;15.40;73.30
24426;DHT22;12611;44.446;26.000;2024-03-25T12:26:34;15.60;74.10
24426;DHT22;12611;44.446;26.000;2024-03-25T12:29:01;15.70;72.70
24426;DHT22;12611;44.446;26.000;2024-03-25T12:31:28;15.80;73.00
24426;DHT22;12611;44.446;26.000;2024-03-25T12:33:54;15.70;72.10
24426;DHT22;12611;44.446;26.000;2024-03-25T12:36:22;15.60;72.20
24426;DHT22;12611;44.446;26.000;2024-03-25T12:38:54;15.60;72.60
24426;DHT22;12611;44.446;26.000;2024-03-25T12:41:23;15.60;72.90
24426;DHT22;12611;44.446;26.000;2024-03-25T12:43:50;15.60;72.20
24426;DHT22;12611;44.446;26.000;2024-03-25T12:46:20;15.50;71.60
24426;DHT22;12611;44.446;26.000;2024-03-25T12:48:47;15.50;70.70
24426;DHT22;12611;44.446;26.000;2024-03-25T12:51:14;15.40;70.20
24426;DHT22;12611;44.446;26.000;2024-03-25T12:53:43;15.20;65.40
24426;DHT22;12611;44.446;26.000;2024-03-25T12:56:09;15.10;63.50
24426;DHT22;12611;44.446;26.000;2024-03-25T12:58:38;14.90;63.80
24426;DHT22;12611;44.446;26.000;2024-03-25T13:01:05;14.90;64.60
24426;DHT22;12611;44.446;26.000;2024-03-25T13:03:31;14.80;64.00
24426;DHT22;12611;44.446;26.000;2024-03-25T13:05:58;14.60;64.70
24426;DHT22;12611;44.446;26.000;2024-03-25T13:08:25;14.50;65.80
24426;DHT22;12611;44.446;26.000;2024-03-25T13:10:53;14.50;66.40
24426;DHT22;12611;44.446;26.000;2024-03-25T13:13:19;14.40;66.20
24426;DHT22;12611;44.446;26.000;2024-03-25T13:15:48;14.40;66.10
24426;DHT22;12611;44.446;26.000;2024-03-25T13:18:14;14.30;65.80
24426;DHT22;12611;44.446;26.000;2024-03-25T13:20:43;14.30;65.90
24426;DHT22;12611;44.446;26.000;2024-03-25T13:23:10;14.30;63.80
24426;DHT22;12611;44.446;26.000;2024-03-25T13:25:37;14.20;62.30
24426;DHT22;12611;44.446;26.000;2024-03-25T13:28:04;14.30;62.60
24426;DHT22;12611;44.446;26.000;2024-03-25T13:30:31;14.20;61.40
24426;DHT22;12611;44.446;26.000;2024-03-25T13:33:00;14.30;61.40
24426;DHT22;12611;44.446;26.000;2024-03-25T13:35:26;14.30;61.30
24426;DHT22;12611;44.446;26.000;2024-03-25T13:37:53;14.40;61.80
24426;DHT22;12611;44.446;26.000;2024-03-25T13:40:20;14.40;60.90
24426;DHT22;12611;44.446;26.000;2024-03-25T13:42:46;14.50;59.80
24426;DHT22;12611;44.446;26.000;2024-03-25T13:45:13;14.60;59.90
24426;DHT22;12611;44.446;26.000;2024-03-25T13:47:39;15.00;60.70
24426;DHT22;12611;44.446;26.000;2024-03-25T13:50:09;15.60;60.30
24426;DHT22;12611;44.446;26.000;2024-03-25T13:52:36;16.40;58.90
24426;DHT22;12611;44.446;26.000;2024-03-25T13:55:02;17.70;57.30
24426;DHT22;12611;44.446;26.000;2024-03-25T13:57:29;18.90;53.70
24426;DHT22;12611;44.446;26.000;2024-03-25T13:59:56;19.70;52.30
24426;DHT22;12611;44.446;26.000;2024-03-25T14:02:23;20.60;50.80
24426;DHT22;12611;44.446;26.000;2024-03-25T14:04:50;22.00;47.30
24426;DHT22;12611;44.446;26.000;2024-03-25T14:07:18;22.80;44.90
24426;DHT22;12611;44.446;26.000;2024-03-25T14:09:45;22.20;48.10
24426;DHT22;12611;44.446;26.000;2024-03-25T14:12:11;23.10;47.30
24426;DHT22;12611;44.446;26.000;2024-03-25T14:14:38;23.40;46.00
24426;DHT22;12611;44.446;26.000;2024-03-25T14:17:05;22.60;46.40
24426;DHT22;12611;44.446;26.000;2024-03-25T14:19:32;21.80;47.90
24426;DHT22;12611;44.446;26.000;2024-03-25T14:21:58;21.30;49.20
24426;DHT22;12611;44.446;26.000;2024-03-25T14:24:27;20.90;50.40
24426;DHT22;12611;44.446;26.000;2024-03-25T14:26:53;20.30;51.20
24426;DHT22;12611;44.446;26.000;2024-03-25T14:29:20;19.80;52.60
24426;DHT22;12611;44.446;26.000;2024-03-25T14:31:47;19.30;53.30
24426;DHT22;12611;44.446;26.000;2024-03-25T14:34:16;18.70;54.30
24426;DHT22;12611;44.446;26.000;2024-03-25T14:36:43;18.30;55.30
24426;DHT22;12611;44.446;26.000;2024-03-25T14:39:12;18.00;56.30
24426;DHT22;12611;44.446;26.000;2024-03-25T14:41:42;17.60;57.00
24426;DHT22;12611;44.446;26.000;2024-03-25T14:44:09;17.30;57.60
24426;DHT22;12611;44.446;26.000;2024-03-25T14:46:36;17.10;58.30
24426;DHT22;12611;44.446;26.000;2024-03-25T14:49:02;16.90;58.80
24426;DHT22;12611;44.446;26.000;2024-03-25T14:51:29;16.70;59.80
24426;DHT22;12611;44.446;26.000;2024-03-25T14:53:55;16.70;60.20
24426;DHT22;12611;44.446;26.000;2024-03-25T14:56:23;16.50;60.80
24426;DHT22;12611;44.446;26.000;2024-03-25T14:58:51;16.20;61.70
24426;DHT22;12611;44.446;26.000;2024-03-25T15:01:18;16.00;62.20
24426;DHT22;12611;44.446;26.000;2024-03-25T15:03:44;15.80;63.30
24426;DHT22;12611;44.446;26.000;2024-03-25T15:06:11;15.90;63.70
24426;DHT22;12611;44.446;26.000;2024-03-25T15:08:38;15.90;63.90
24426;DHT22;12611;44.446;26.000;2024-03-25T15:11:04;15.80;64.20
24426;DHT22;12611;44.446;26.000;2024-03-25T15:13:31;15.60;64.60
24426;DHT22;12611;44.446;26.000;2024-03-25T15:16:03;15.50;65.10
24426;DHT22;12611;44.446;26.000;2024-03-25T15:18:31;15.40;65.50
24426;DHT22;12611;44.446;26.000;2024-03-25T15:21:02;15.30;66.20